sensor_id;sensor_type;location;lat;lon;timestamp;pressure;altitude;pressure_sealevel;temperature;humidity
6144;BME280;3103;49.492;8.474;2023-02-13T00:00:44;102588.41;;;7.10;82.88
6144;BME280;3103;49.492;8.474;2023-02-13T00:03:11;102590.41;;;7.17;82.51
6144;BME280;3103;49.492;8.474;2023-02-13T00:05:38;102588.09;;;7.13;82.68
6144;BME280;3103;49.492;8.474;2023-02-13T00:08:05;102591.13;;;7.35;81.34
6144;BME280;3103;49.492;8.474;2023-02-13T00:10:31;102579.06;;;7.31;82.06
6144;BME280;3103;49.492;8.474;2023-02-13T00:12:59;102576.41;;;7.23;82.22
6144;BME280;3103;49.492;8.474;2023-02-13T00:15:26;102580.44;;;7.19;81.85
6144;BME280;3103;49.492;8.474;2023-02-13T00:17:53;102576.06;;;7.09;82.99
6144;BME280;3103;49.492;8.474;2023-02-13T00:20:20;102569.03;;;7.08;82.71
6144;BME280;3103;49.492;8.474;2023-02-13T00:22:46;102570.22;;;7.06;82.76
6144;BME280;3103;49.492;8.474;2023-02-13T00:25:13;102571.22;;;7.05;82.83
6144;BME280;3103;49.492;8.474;2023-02-13T00:27:40;102567.00;;;7.02;82.57
6144;BME280;3103;49.492;8.474;2023-02-13T00:30:07;102572.75;;;7.24;82.04
6144;BME280;3103;49.492;8.474;2023-02-13T00:32:34;102567.72;;;7.21;81.44
6144;BME280;3103;49.492;8.474;2023-02-13T00:35:01;102560.69;;;7.28;80.90
6144;BME280;3103;49.492;8.474;2023-02-13T00:37:28;102566.88;;;7.28;80.38
6144;BME280;3103;49.492;8.474;2023-02-13T00:39:55;102568.03;;;7.09;81.50
6144;BME280;3103;49.492;8.474;2023-02-13T00:42:23;102563.53;;;7.10;81.63
6144;BME280;3103;49.492;8.474;2023-02-13T00:44:52;102567.88;;;7.11;80.96
6144;BME280;3103;49.492;8.474;2023-02-13T00:47:20;102566.34;;;7.00;81.29
6144;BME280;3103;49.492;8.474;2023-02-13T00:49:46;102566.50;;;6.99;81.72
6144;BME280;3103;49.492;8.474;2023-02-13T00:52:13;102559.00;;;7.10;81.13
6144;BME280;3103;49.492;8.474;2023-02-13T00:54:40;102562.50;;;6.95;81.78
6144;BME280;3103;49.492;8.474;2023-02-13T00:57:06;102568.00;;;7.01;81.91
6144;BME280;3103;49.492;8.474;2023-02-13T00:59:33;102561.69;;;7.10;81.15
6144;BME280;3103;49.492;8.474;2023-02-13T01:02:00;102565.69;;;7.06;81.20
6144;BME280;3103;49.492;8.474;2023-02-13T01:04:27;102567.69;;;7.12;80.55
6144;BME280;3103;49.492;8.474;2023-02-13T01:06:56;102564.66;;;6.99;80.29
6144;BME280;3103;49.492;8.474;2023-02-13T01:09:23;102563.81;;;6.82;81.88
6144;BME280;3103;49.492;8.474;2023-02-13T01:11:50;102569.28;;;6.73;82.00
6144;BME280;3103;49.492;8.474;2023-02-13T01:14:17;102568.81;;;6.77;81.84
6144;BME280;3103;49.492;8.474;2023-02-13T01:16:46;102575.88;;;6.95;81.21
6144;BME280;3103;49.492;8.474;2023-02-13T01:19:12;102567.81;;;6.78;81.91
6144;BME280;3103;49.492;8.474;2023-02-13T01:21:39;102569.84;;;6.93;81.95
6144;BME280;3103;49.492;8.474;2023-02-13T01:24:06;102567.81;;;6.87;81.33
6144;BME280;3103;49.492;8.474;2023-02-13T01:26:34;102568.59;;;6.71;82.39
6144;BME280;3103;49.492;8.474;2023-02-13T01:29:01;102571.31;;;6.79;81.71
6144;BME280;3103;49.492;8.474;2023-02-13T01:31:28;102567.63;;;6.88;81.86
6144;BME280;3103;49.492;8.474;2023-02-13T01:33:56;102570.16;;;6.90;81.14
6144;BME280;3103;49.492;8.474;2023-02-13T01:36:24;102576.66;;;6.79;81.14
6144;BME280;3103;49.492;8.474;2023-02-13T01:38:57;102571.19;;;6.97;80.34
6144;BME280;3103;49.492;8.474;2023-02-13T01:41:25;102572.31;;;6.86;81.02
6144;BME280;3103;49.492;8.474;2023-02-13T01:43:55;102567.75;;;6.70;81.47
6144;BME280;3103;49.492;8.474;2023-02-13T01:46:36;102568.03;;;6.51;82.26
6144;BME280;3103;49.492;8.474;2023-02-13T01:49:09;102563.97;;;6.81;81.37
6144;BME280;3103;49.492;8.474;2023-02-13T01:51:39;102566.75;;;6.63;81.64
6144;BME280;3103;49.492;8.474;2023-02-13T01:54:14;102568.31;;;6.82;81.12
6144;BME280;3103;49.492;8.474;2023-02-13T01:56:49;102565.31;;;6.85;80.49
6144;BME280;3103;49.492;8.474;2023-02-13T01:59:22;102563.28;;;6.79;80.72
6144;BME280;3103;49.492;8.474;2023-02-13T02:01:51;102564.97;;;6.80;80.23
6144;BME280;3103;49.492;8.474;2023-02-13T02:04:27;102563.31;;;6.87;80.13
6144;BME280;3103;49.492;8.474;2023-02-13T02:07:03;102566.09;;;6.69;81.43
6144;BME280;3103;49.492;8.474;2023-02-13T02:09:36;102567.13;;;6.76;80.23
6144;BME280;3103;49.492;8.474;2023-02-13T02:12:11;102562.25;;;6.64;80.38
6144;BME280;3103;49.492;8.474;2023-02-13T02:14:41;102562.53;;;6.52;81.63
6144;BME280;3103;49.492;8.474;2023-02-13T02:17:10;102560.88;;;6.60;80.88
6144;BME280;3103;49.492;8.474;2023-02-13T02:30:49;102548.78;;;6.39;81.61
6144;BME280;3103;49.492;8.474;2023-02-13T02:33:34;102557.47;;;6.41;81.37
6144;BME280;3103;49.492;8.474;2023-02-13T02:36:22;102555.69;;;6.50;80.97
6144;BME280;3103;49.492;8.474;2023-02-13T02:39:02;102553.69;;;6.52;80.14
6144;BME280;3103;49.492;8.474;2023-02-13T02:41:41;102554.69;;;6.59;80.18
6144;BME280;3103;49.492;8.474;2023-02-13T02:44:31;102553.31;;;6.47;80.32
6144;BME280;3103;49.492;8.474;2023-02-13T02:47:09;102557.47;;;6.41;80.47
6144;BME280;3103;49.492;8.474;2023-02-13T02:52:59;102548.13;;;6.37;80.60
6144;BME280;3103;49.492;8.474;2023-02-13T02:55:47;102545.38;;;6.21;81.05
6144;BME280;3103;49.492;8.474;2023-02-13T02:58:23;102545.41;;;6.29;81.23
6144;BME280;3103;49.492;8.474;2023-02-13T03:01:13;102555.25;;;6.29;80.92
6144;BME280;3103;49.492;8.474;2023-02-13T03:04:00;102553.00;;;6.16;81.13
6144;BME280;3103;49.492;8.474;2023-02-13T03:06:55;102555.94;;;6.05;82.30
6144;BME280;3103;49.492;8.474;2023-02-13T03:09:28;102560.56;;;5.94;82.83
6144;BME280;3103;49.492;8.474;2023-02-13T03:12:21;102556.44;;;6.00;82.04
6144;BME280;3103;49.492;8.474;2023-02-13T03:15:08;102560.50;;;6.12;81.48
6144;BME280;3103;49.492;8.474;2023-02-13T03:17:35;102564.06;;;6.21;81.40
6144;BME280;3103;49.492;8.474;2023-02-13T03:20:41;102561.81;;;6.08;81.29
6144;BME280;3103;49.492;8.474;2023-02-13T03:23:32;102565.78;;;6.04;81.48
6144;BME280;3103;49.492;8.474;2023-02-13T03:29:04;102575.44;;;5.97;81.57
6144;BME280;3103;49.492;8.474;2023-02-13T03:32:07;102574.28;;;6.00;81.49
6144;BME280;3103;49.492;8.474;2023-02-13T03:34:39;102567.78;;;6.02;81.09
6144;BME280;3103;49.492;8.474;2023-02-13T03:37:34;102573.91;;;5.77;81.52
6144;BME280;3103;49.492;8.474;2023-02-13T03:40:36;102574.38;;;5.72;82.33
6144;BME280;3103;49.492;8.474;2023-02-13T03:43:31;102581.25;;;5.92;81.52
6144;BME280;3103;49.492;8.474;2023-02-13T03:46:02;102576.03;;;5.91;81.54
6144;BME280;3103;49.492;8.474;2023-02-13T03:48:32;102576.97;;;5.82;82.02
6144;BME280;3103;49.492;8.474;2023-02-13T03:51:28;102579.47;;;5.83;82.82
6144;BME280;3103;49.492;8.474;2023-02-13T03:54:01;102582.06;;;5.75;82.98
6144;BME280;3103;49.492;8.474;2023-02-13T03:56:32;102582.97;;;5.84;83.23
6144;BME280;3103;49.492;8.474;2023-02-13T03:59:21;102576.81;;;5.83;83.42
6144;BME280;3103;49.492;8.474;2023-02-13T04:02:19;102575.38;;;5.71;83.65
6144;BME280;3103;49.492;8.474;2023-02-13T04:05:08;102581.31;;;5.83;82.65
6144;BME280;3103;49.492;8.474;2023-02-13T04:07:36;102572.38;;;5.74;82.96
6144;BME280;3103;49.492;8.474;2023-02-13T04:10:09;102577.47;;;5.85;82.97
6144;BME280;3103;49.492;8.474;2023-02-13T04:18:01;102571.41;;;5.75;82.76
6144;BME280;3103;49.492;8.474;2023-02-13T04:20:30;102578.94;;;5.80;82.72
6144;BME280;3103;49.492;8.474;2023-02-13T04:23:04;102572.63;;;5.81;81.87
6144;BME280;3103;49.492;8.474;2023-02-13T04:25:31;102572.22;;;5.76;82.04
6144;BME280;3103;49.492;8.474;2023-02-13T04:27:59;102571.75;;;5.54;82.33
6144;BME280;3103;49.492;8.474;2023-02-13T04:30:26;102572.22;;;5.50;82.75
6144;BME280;3103;49.492;8.474;2023-02-13T04:32:53;102572.28;;;5.58;82.75
6144;BME280;3103;49.492;8.474;2023-02-13T04:35:20;102575.84;;;5.66;81.25
6144;BME280;3103;49.492;8.474;2023-02-13T04:37:48;102573.19;;;5.49;82.48
6144;BME280;3103;49.492;8.474;2023-02-13T04:40:15;102580.13;;;5.42;81.71
6144;BME280;3103;49.492;8.474;2023-02-13T04:42:42;102570.47;;;5.41;82.51
6144;BME280;3103;49.492;8.474;2023-02-13T04:45:09;102571.66;;;5.46;82.70
6144;BME280;3103;49.492;8.474;2023-02-13T04:47:35;102563.44;;;5.57;82.84
6144;BME280;3103;49.492;8.474;2023-02-13T04:50:03;102572.06;;;5.51;83.02
6144;BME280;3103;49.492;8.474;2023-02-13T04:52:29;102572.38;;;5.30;83.37
6144;BME280;3103;49.492;8.474;2023-02-13T04:54:56;102567.34;;;5.45;83.13
6144;BME280;3103;49.492;8.474;2023-02-13T04:57:23;102569.75;;;5.56;81.55
6144;BME280;3103;49.492;8.474;2023-02-13T04:59:50;102563.75;;;5.54;80.69
6144;BME280;3103;49.492;8.474;2023-02-13T05:02:17;102572.97;;;5.42;81.26
6144;BME280;3103;49.492;8.474;2023-02-13T05:04:43;102571.78;;;5.36;81.62
6144;BME280;3103;49.492;8.474;2023-02-13T05:07:10;102568.63;;;5.41;81.63
6144;BME280;3103;49.492;8.474;2023-02-13T05:09:37;102576.16;;;5.46;81.39
6144;BME280;3103;49.492;8.474;2023-02-13T05:12:07;102569.16;;;5.45;80.26
6144;BME280;3103;49.492;8.474;2023-02-13T05:14:34;102575.41;;;5.18;79.93
6144;BME280;3103;49.492;8.474;2023-02-13T05:17:00;102581.56;;;5.00;79.88
6144;BME280;3103;49.492;8.474;2023-02-13T05:19:27;102573.56;;;5.00;81.39
6144;BME280;3103;49.492;8.474;2023-02-13T05:21:54;102577.34;;;5.07;82.46
6144;BME280;3103;49.492;8.474;2023-02-13T05:24:39;102574.97;;;5.22;83.14
6144;BME280;3103;49.492;8.474;2023-02-13T05:27:06;102579.31;;;5.23;82.06
6144;BME280;3103;49.492;8.474;2023-02-13T05:29:33;102576.56;;;5.15;81.31
6144;BME280;3103;49.492;8.474;2023-02-13T05:32:00;102579.22;;;5.15;81.88
6144;BME280;3103;49.492;8.474;2023-02-13T05:34:28;102575.72;;;5.15;81.04
6144;BME280;3103;49.492;8.474;2023-02-13T05:36:55;102583.09;;;5.03;80.52
6144;BME280;3103;49.492;8.474;2023-02-13T05:39:22;102574.47;;;4.91;81.44
6144;BME280;3103;49.492;8.474;2023-02-13T05:41:49;102577.91;;;5.01;81.59
6144;BME280;3103;49.492;8.474;2023-02-13T05:44:16;102574.25;;;5.02;81.15
6144;BME280;3103;49.492;8.474;2023-02-13T05:46:43;102571.44;;;5.04;81.21
6144;BME280;3103;49.492;8.474;2023-02-13T05:49:12;102571.59;;;5.02;80.79
6144;BME280;3103;49.492;8.474;2023-02-13T05:51:39;102572.25;;;4.87;80.84
6144;BME280;3103;49.492;8.474;2023-02-13T05:54:06;102580.09;;;4.88;80.99
6144;BME280;3103;49.492;8.474;2023-02-13T05:56:33;102569.69;;;4.95;81.69
6144;BME280;3103;49.492;8.474;2023-02-13T05:58:59;102575.72;;;4.97;81.57
6144;BME280;3103;49.492;8.474;2023-02-13T06:01:26;102565.44;;;5.02;80.80
6144;BME280;3103;49.492;8.474;2023-02-13T06:03:53;102564.75;;;5.00;81.06
6144;BME280;3103;49.492;8.474;2023-02-13T06:06:20;102566.78;;;5.06;80.83
6144;BME280;3103;49.492;8.474;2023-02-13T06:08:48;102569.78;;;5.03;79.12
6144;BME280;3103;49.492;8.474;2023-02-13T06:11:15;102573.28;;;5.03;79.09
6144;BME280;3103;49.492;8.474;2023-02-13T06:13:42;102576.69;;;4.96;78.53
6144;BME280;3103;49.492;8.474;2023-02-13T06:16:10;102583.59;;;4.89;78.01
6144;BME280;3103;49.492;8.474;2023-02-13T06:18:37;102581.75;;;4.71;78.17
6144;BME280;3103;49.492;8.474;2023-02-13T06:21:05;102583.09;;;4.58;78.83
6144;BME280;3103;49.492;8.474;2023-02-13T06:23:32;102581.41;;;4.57;79.68
6144;BME280;3103;49.492;8.474;2023-02-13T06:26:04;102582.63;;;4.62;80.19
6144;BME280;3103;49.492;8.474;2023-02-13T06:28:31;102583.53;;;4.81;79.50
6144;BME280;3103;49.492;8.474;2023-02-13T06:30:59;102587.31;;;4.78;78.43
6144;BME280;3103;49.492;8.474;2023-02-13T06:33:26;102577.88;;;4.66;78.66
6144;BME280;3103;49.492;8.474;2023-02-13T06:35:53;102583.72;;;4.69;78.40
6144;BME280;3103;49.492;8.474;2023-02-13T06:38:20;102588.06;;;4.70;78.60
6144;BME280;3103;49.492;8.474;2023-02-13T06:40:47;102594.91;;;4.73;78.22
6144;BME280;3103;49.492;8.474;2023-02-13T06:43:15;102586.09;;;4.72;78.44
6144;BME280;3103;49.492;8.474;2023-02-13T06:45:43;102591.25;;;4.74;77.87
6144;BME280;3103;49.492;8.474;2023-02-13T06:48:13;102587.38;;;4.68;77.49
6144;BME280;3103;49.492;8.474;2023-02-13T06:50:40;102590.97;;;4.50;78.85
6144;BME280;3103;49.492;8.474;2023-02-13T06:53:07;102601.91;;;4.74;77.91
6144;BME280;3103;49.492;8.474;2023-02-13T06:55:35;102590.34;;;4.65;77.15
6144;BME280;3103;49.492;8.474;2023-02-13T06:58:05;102598.41;;;4.73;76.94
6144;BME280;3103;49.492;8.474;2023-02-13T07:00:31;102593.09;;;4.73;76.30
6144;BME280;3103;49.492;8.474;2023-02-13T07:03:03;102602.22;;;4.71;76.54
6144;BME280;3103;49.492;8.474;2023-02-13T07:05:32;102602.25;;;4.61;77.64
6144;BME280;3103;49.492;8.474;2023-02-13T07:07:58;102600.66;;;4.51;78.37
6144;BME280;3103;49.492;8.474;2023-02-13T07:10:25;102604.38;;;4.85;78.07
6144;BME280;3103;49.492;8.474;2023-02-13T07:12:52;102607.50;;;4.81;77.87
6144;BME280;3103;49.492;8.474;2023-02-13T07:15:32;102596.84;;;4.81;78.74
6144;BME280;3103;49.492;8.474;2023-02-13T07:17:59;102600.53;;;4.70;78.71
6144;BME280;3103;49.492;8.474;2023-02-13T07:20:26;102601.38;;;4.98;77.43
6144;BME280;3103;49.492;8.474;2023-02-13T07:22:59;102607.91;;;5.03;76.24
6144;BME280;3103;49.492;8.474;2023-02-13T07:25:26;102617.03;;;5.01;76.22
6144;BME280;3103;49.492;8.474;2023-02-13T07:27:53;102607.91;;;5.03;75.79
6144;BME280;3103;49.492;8.474;2023-02-13T07:30:20;102605.81;;;5.43;75.97
6144;BME280;3103;49.492;8.474;2023-02-13T07:32:48;102598.41;;;5.54;75.23
6144;BME280;3103;49.492;8.474;2023-02-13T07:35:16;102603.44;;;5.40;75.75
6144;BME280;3103;49.492;8.474;2023-02-13T07:37:43;102601.00;;;5.46;75.78
6144;BME280;3103;49.492;8.474;2023-02-13T07:40:10;102610.66;;;5.12;76.63
6144;BME280;3103;49.492;8.474;2023-02-13T07:42:36;102603.50;;;5.30;76.08
6144;BME280;3103;49.492;8.474;2023-02-13T07:45:03;102608.28;;;5.62;74.96
6144;BME280;3103;49.492;8.474;2023-02-13T07:47:32;102610.91;;;5.54;75.43
6144;BME280;3103;49.492;8.474;2023-02-13T07:50:01;102617.22;;;5.71;75.66
6144;BME280;3103;49.492;8.474;2023-02-13T07:52:28;102618.28;;;5.78;75.87
6144;BME280;3103;49.492;8.474;2023-02-13T07:54:55;102617.56;;;6.11;74.06
6144;BME280;3103;49.492;8.474;2023-02-13T07:57:21;102621.56;;;6.15;73.33
6144;BME280;3103;49.492;8.474;2023-02-13T07:59:48;102612.53;;;6.08;74.50
6144;BME280;3103;49.492;8.474;2023-02-13T08:02:15;102619.28;;;6.20;73.50
6144;BME280;3103;49.492;8.474;2023-02-13T08:04:42;102616.66;;;6.29;73.71
6144;BME280;3103;49.492;8.474;2023-02-13T08:07:13;102614.88;;;6.37;73.25
6144;BME280;3103;49.492;8.474;2023-02-13T08:09:39;102615.03;;;6.70;72.15
6144;BME280;3103;49.492;8.474;2023-02-13T08:12:24;102608.38;;;6.82;73.00
6144;BME280;3103;49.492;8.474;2023-02-13T08:14:52;102613.25;;;6.87;71.73
6144;BME280;3103;49.492;8.474;2023-02-13T08:17:19;102607.72;;;6.88;71.08
6144;BME280;3103;49.492;8.474;2023-02-13T08:19:45;102616.06;;;6.85;70.84
6144;BME280;3103;49.492;8.474;2023-02-13T08:22:12;102627.69;;;7.10;70.09
6144;BME280;3103;49.492;8.474;2023-02-13T08:24:39;102629.22;;;7.21;70.57
6144;BME280;3103;49.492;8.474;2023-02-13T08:27:05;102625.56;;;7.54;68.93
6144;BME280;3103;49.492;8.474;2023-02-13T08:29:32;102627.25;;;7.71;67.31
6144;BME280;3103;49.492;8.474;2023-02-13T08:32:00;102623.75;;;7.71;67.88
6144;BME280;3103;49.492;8.474;2023-02-13T08:34:27;102623.56;;;7.72;68.45
6144;BME280;3103;49.492;8.474;2023-02-13T08:36:53;102624.41;;;7.65;68.56
6144;BME280;3103;49.492;8.474;2023-02-13T08:39:20;102618.06;;;7.66;69.28
6144;BME280;3103;49.492;8.474;2023-02-13T08:41:47;102615.38;;;7.74;69.60
6144;BME280;3103;49.492;8.474;2023-02-13T08:44:14;102622.06;;;7.70;69.77
6144;BME280;3103;49.492;8.474;2023-02-13T08:46:40;102622.56;;;7.33;70.84
6144;BME280;3103;49.492;8.474;2023-02-13T08:49:07;102618.91;;;7.74;70.46
6144;BME280;3103;49.492;8.474;2023-02-13T08:51:34;102605.84;;;7.80;70.46
6144;BME280;3103;49.492;8.474;2023-02-13T08:54:00;102611.88;;;7.82;71.40
6144;BME280;3103;49.492;8.474;2023-02-13T08:56:27;102617.53;;;7.95;70.68
6144;BME280;3103;49.492;8.474;2023-02-13T08:58:54;102615.00;;;8.10;69.51
6144;BME280;3103;49.492;8.474;2023-02-13T09:01:21;102612.34;;;8.18;69.23
6144;BME280;3103;49.492;8.474;2023-02-13T09:03:49;102614.88;;;7.87;70.60
6144;BME280;3103;49.492;8.474;2023-02-13T09:06:17;102609.50;;;7.95;70.66
6144;BME280;3103;49.492;8.474;2023-02-13T09:08:44;102614.13;;;8.42;68.83
6144;BME280;3103;49.492;8.474;2023-02-13T09:11:11;102615.78;;;8.51;69.14
6144;BME280;3103;49.492;8.474;2023-02-13T09:13:37;102614.97;;;8.26;70.17
6144;BME280;3103;49.492;8.474;2023-02-13T09:16:06;102614.81;;;8.36;69.82
6144;BME280;3103;49.492;8.474;2023-02-13T09:18:33;102609.16;;;8.06;71.33
6144;BME280;3103;49.492;8.474;2023-02-13T09:21:06;102610.69;;;7.84;71.74
6144;BME280;3103;49.492;8.474;2023-02-13T09:23:36;102609.53;;;8.03;72.21
6144;BME280;3103;49.492;8.474;2023-02-13T09:26:04;102610.97;;;8.14;71.53
6144;BME280;3103;49.492;8.474;2023-02-13T09:28:32;102623.41;;;8.70;70.21
6144;BME280;3103;49.492;8.474;2023-02-13T09:31:21;102623.19;;;8.80;68.48
6144;BME280;3103;49.492;8.474;2023-02-13T09:33:50;102617.28;;;8.53;69.66
6144;BME280;3103;49.492;8.474;2023-02-13T09:36:19;102628.81;;;8.62;69.98
6144;BME280;3103;49.492;8.474;2023-02-13T09:38:51;102630.69;;;8.29;70.38
6144;BME280;3103;49.492;8.474;2023-02-13T09:41:34;102627.09;;;7.89;72.17
6144;BME280;3103;49.492;8.474;2023-02-13T09:44:27;102630.59;;;7.98;72.30
6144;BME280;3103;49.492;8.474;2023-02-13T09:47:27;102633.56;;;8.36;71.53
6144;BME280;3103;49.492;8.474;2023-02-13T09:49:59;102637.38;;;8.49;70.19
6144;BME280;3103;49.492;8.474;2023-02-13T09:52:32;102629.59;;;7.83;72.50
6144;BME280;3103;49.492;8.474;2023-02-13T09:55:20;102632.59;;;8.04;72.41
6144;BME280;3103;49.492;8.474;2023-02-13T09:58:04;102629.91;;;8.20;71.21
6144;BME280;3103;49.492;8.474;2023-02-13T10:00:37;102627.25;;;8.04;71.85
6144;BME280;3103;49.492;8.474;2023-02-13T10:03:22;102635.06;;;8.46;71.18
6144;BME280;3103;49.492;8.474;2023-02-13T10:06:03;102629.72;;;8.22;71.89
6144;BME280;3103;49.492;8.474;2023-02-13T10:08:58;102633.88;;;8.49;70.45
6144;BME280;3103;49.492;8.474;2023-02-13T10:11:42;102628.34;;;8.50;70.30
6144;BME280;3103;49.492;8.474;2023-02-13T10:14:31;102626.84;;;8.40;70.84
6144;BME280;3103;49.492;8.474;2023-02-13T10:17:10;102624.47;;;8.61;70.64
6144;BME280;3103;49.492;8.474;2023-02-13T10:19:45;102621.94;;;8.99;69.76
6144;BME280;3103;49.492;8.474;2023-02-13T10:22:25;102623.31;;;8.86;69.01
6144;BME280;3103;49.492;8.474;2023-02-13T10:27:57;102616.50;;;8.45;70.46
6144;BME280;3103;49.492;8.474;2023-02-13T10:30:50;102629.41;;;8.80;69.95
6144;BME280;3103;49.492;8.474;2023-02-13T10:33:22;102628.97;;;9.00;69.08
6144;BME280;3103;49.492;8.474;2023-02-13T10:38:31;102621.44;;;8.64;70.58
6144;BME280;3103;49.492;8.474;2023-02-13T10:50:13;102626.69;;;8.88;69.56
6144;BME280;3103;49.492;8.474;2023-02-13T10:55:44;102613.16;;;9.36;68.69
6144;BME280;3103;49.492;8.474;2023-02-13T10:58:21;102616.97;;;9.41;67.37
6144;BME280;3103;49.492;8.474;2023-02-13T11:03:44;102605.09;;;9.13;67.03
6144;BME280;3103;49.492;8.474;2023-02-13T11:06:15;102605.28;;;9.34;67.40
6144;BME280;3103;49.492;8.474;2023-02-13T11:08:46;102593.50;;;9.43;66.45
6144;BME280;3103;49.492;8.474;2023-02-13T11:11:37;102588.00;;;9.60;65.35
6144;BME280;3103;49.492;8.474;2023-02-13T11:19:33;102582.19;;;9.71;64.72
6144;BME280;3103;49.492;8.474;2023-02-13T11:22:10;102585.25;;;9.82;64.98
6144;BME280;3103;49.492;8.474;2023-02-13T11:24:39;102582.06;;;9.87;64.08
6144;BME280;3103;49.492;8.474;2023-02-13T11:27:09;102575.69;;;10.03;64.06
6144;BME280;3103;49.492;8.474;2023-02-13T11:29:55;102585.59;;;10.17;63.15
6144;BME280;3103;49.492;8.474;2023-02-13T11:32:24;102582.00;;;10.25;62.32
6144;BME280;3103;49.492;8.474;2023-02-13T11:34:52;102577.84;;;10.22;61.93
6144;BME280;3103;49.492;8.474;2023-02-13T11:37:23;102573.41;;;10.44;61.27
6144;BME280;3103;49.492;8.474;2023-02-13T11:39:53;102579.84;;;10.20;60.75
6144;BME280;3103;49.492;8.474;2023-02-13T11:42:29;102577.28;;;10.27;61.49
6144;BME280;3103;49.492;8.474;2023-02-13T11:45:20;102577.13;;;10.28;60.26
6144;BME280;3103;49.492;8.474;2023-02-13T11:47:48;102575.38;;;9.98;61.80
6144;BME280;3103;49.492;8.474;2023-02-13T11:50:25;102573.00;;;10.18;62.08
6144;BME280;3103;49.492;8.474;2023-02-13T11:52:54;102574.44;;;10.43;61.10
6144;BME280;3103;49.492;8.474;2023-02-13T11:55:36;102568.28;;;10.49;61.34
6144;BME280;3103;49.492;8.474;2023-02-13T12:00:39;102568.06;;;10.65;61.13
6144;BME280;3103;49.492;8.474;2023-02-13T12:03:34;102562.31;;;10.68;60.09
6144;BME280;3103;49.492;8.474;2023-02-13T12:06:13;102565.38;;;10.65;59.17
6144;BME280;3103;49.492;8.474;2023-02-13T12:08:45;102563.84;;;10.27;59.58
6144;BME280;3103;49.492;8.474;2023-02-13T12:14:02;102553.47;;;10.24;60.30
6144;BME280;3103;49.492;8.474;2023-02-13T12:16:38;102549.94;;;10.38;60.02
6144;BME280;3103;49.492;8.474;2023-02-13T12:19:11;102552.25;;;10.41;59.22
6144;BME280;3103;49.492;8.474;2023-02-13T12:22:02;102547.63;;;10.35;59.99
6144;BME280;3103;49.492;8.474;2023-02-13T12:33:09;102540.28;;;10.58;61.00
6144;BME280;3103;49.492;8.474;2023-02-13T12:35:54;102544.75;;;10.51;60.87
6144;BME280;3103;49.492;8.474;2023-02-13T12:38:45;102538.78;;;10.70;60.19
6144;BME280;3103;49.492;8.474;2023-02-13T12:44:10;102527.56;;;10.67;60.73
6144;BME280;3103;49.492;8.474;2023-02-13T12:46:53;102518.84;;;10.65;60.69
6144;BME280;3103;49.492;8.474;2023-02-13T12:49:45;102522.84;;;10.54;61.54
6144;BME280;3103;49.492;8.474;2023-02-13T13:03:36;102503.72;;;10.43;61.99
6144;BME280;3103;49.492;8.474;2023-02-13T13:14:51;102501.88;;;10.64;61.52
6144;BME280;3103;49.492;8.474;2023-02-13T13:17:59;102492.75;;;10.59;62.14
6144;BME280;3103;49.492;8.474;2023-02-13T13:20:52;102489.44;;;10.78;61.67
6144;BME280;3103;49.492;8.474;2023-02-13T13:23:31;102491.38;;;10.69;62.05
6144;BME280;3103;49.492;8.474;2023-02-13T13:26:13;102486.00;;;10.69;61.44
6144;BME280;3103;49.492;8.474;2023-02-13T13:28:43;102486.88;;;10.55;62.14
6144;BME280;3103;49.492;8.474;2023-02-13T13:31:13;102486.16;;;10.61;62.23
6144;BME280;3103;49.492;8.474;2023-02-13T13:33:44;102483.56;;;10.53;62.45
6144;BME280;3103;49.492;8.474;2023-02-13T13:36:39;102476.28;;;10.47;63.25
6144;BME280;3103;49.492;8.474;2023-02-13T13:39:29;102484.63;;;10.74;61.93
6144;BME280;3103;49.492;8.474;2023-02-13T13:42:21;102479.16;;;10.67;62.35
6144;BME280;3103;49.492;8.474;2023-02-13T13:45:35;102469.78;;;10.78;62.16
6144;BME280;3103;49.492;8.474;2023-02-13T13:48:34;102475.78;;;10.80;62.16
6144;BME280;3103;49.492;8.474;2023-02-13T13:51:09;102476.56;;;10.95;61.81
6144;BME280;3103;49.492;8.474;2023-02-13T13:54:16;102479.19;;;11.10;61.46
6144;BME280;3103;49.492;8.474;2023-02-13T14:05:00;102459.69;;;11.29;60.32
6144;BME280;3103;49.492;8.474;2023-02-13T14:07:34;102457.47;;;11.39;60.13
6144;BME280;3103;49.492;8.474;2023-02-13T14:10:01;102459.63;;;11.50;59.04
6144;BME280;3103;49.492;8.474;2023-02-13T14:14:56;102451.34;;;11.45;59.34
6144;BME280;3103;49.492;8.474;2023-02-13T14:22:48;102443.03;;;11.75;58.70
6144;BME280;3103;49.492;8.474;2023-02-13T14:25:25;102449.38;;;11.95;57.94
6144;BME280;3103;49.492;8.474;2023-02-13T14:27:57;102441.88;;;12.25;56.27
6144;BME280;3103;49.492;8.474;2023-02-13T14:32:54;102442.25;;;12.22;55.33
6144;BME280;3103;49.492;8.474;2023-02-13T14:35:27;102448.25;;;12.24;55.85
6144;BME280;3103;49.492;8.474;2023-02-13T14:38:00;102444.34;;;12.33;56.50
6144;BME280;3103;49.492;8.474;2023-02-13T14:40:45;102449.78;;;12.46;55.49
6144;BME280;3103;49.492;8.474;2023-02-13T14:43:32;102446.09;;;12.61;54.73
6144;BME280;3103;49.492;8.474;2023-02-13T14:46:36;102445.06;;;12.62;54.79
6144;BME280;3103;49.492;8.474;2023-02-13T14:49:21;102440.28;;;12.57;54.85
6144;BME280;3103;49.492;8.474;2023-02-13T14:51:52;102443.22;;;12.75;54.06
6144;BME280;3103;49.492;8.474;2023-02-13T14:54:54;102445.28;;;12.80;53.31
6144;BME280;3103;49.492;8.474;2023-02-13T14:57:16;102430.81;;;12.81;53.71
6144;BME280;3103;49.492;8.474;2023-02-13T14:59:50;102438.47;;;12.84;53.08
6144;BME280;3103;49.492;8.474;2023-02-13T15:02:23;102427.25;;;12.74;53.51
6144;BME280;3103;49.492;8.474;2023-02-13T15:04:55;102431.59;;;12.75;53.81
6144;BME280;3103;49.492;8.474;2023-02-13T15:07:41;102426.66;;;12.85;53.26
6144;BME280;3103;49.492;8.474;2023-02-13T15:13:01;102428.09;;;12.88;53.10
6144;BME280;3103;49.492;8.474;2023-02-13T15:15:33;102438.69;;;13.16;52.04
6144;BME280;3103;49.492;8.474;2023-02-13T15:18:10;102430.44;;;13.24;51.63
6144;BME280;3103;49.492;8.474;2023-02-13T15:20:43;102436.00;;;13.22;51.79
6144;BME280;3103;49.492;8.474;2023-02-13T15:23:23;102433.09;;;13.11;52.15
6144;BME280;3103;49.492;8.474;2023-02-13T15:26:05;102435.34;;;12.94;52.60
6144;BME280;3103;49.492;8.474;2023-02-13T15:28:34;102440.72;;;12.74;53.36
6144;BME280;3103;49.492;8.474;2023-02-13T15:31:16;102439.81;;;12.34;54.56
6144;BME280;3103;49.492;8.474;2023-02-13T15:33:47;102427.88;;;12.02;55.74
6144;BME280;3103;49.492;8.474;2023-02-13T15:36:21;102435.13;;;12.01;56.19
6144;BME280;3103;49.492;8.474;2023-02-13T15:39:01;102423.44;;;11.87;56.15